Rio Oso, California
Current Conditions -  °F | °C
As of 5:15 PM on Tuesday 21 Oct 2014 (Local Time) from KLHM Reporting Station
Clear Clear  
Wind Chill: 70°   Ceiling: Unl
Heat Index: 70°   Visibility: 10mi
Dew Point: 37°   Wind: 6mph
Humidity: 31%   Direction: 320°NW
Pressure: 29.99"   Gusts: NA
Location:  38.96°N, 121.49°W
Report Text: KLHM 220015Z AUTO 32005KT 10SM CLR 21/03 A2999 RMK AO1
Loading
Personal Weather Stations






























Interactive Weather Map
Tropical Storm Tracking
New forecast layout! Learn more

10-Day Weather Forecast

Advertisements
Track Severe Weather on mobile